createdAt,value
2022-12-23T00:01:23.113Z,13.85
2022-12-23T00:06:25.195Z,17.80
2022-12-23T00:11:27.708Z,18.63
2022-12-23T00:16:29.526Z,23.25
2022-12-23T00:21:31.035Z,17.85
2022-12-23T00:26:32.431Z,18.80
2022-12-23T00:31:33.850Z,25.80
2022-12-23T00:36:37.500Z,23.90
2022-12-23T00:41:57.749Z,26.05
2022-12-23T00:46:59.183Z,22.45
2022-12-23T00:52:01.263Z,21.60
2022-12-23T00:57:03.660Z,20.73
2022-12-23T01:02:23.587Z,20.17
2022-12-23T01:07:25.484Z,21.63
2022-12-23T01:12:27.332Z,15.30
2022-12-23T01:17:28.833Z,19.67
2022-12-23T01:22:30.272Z,10.15
2022-12-23T01:27:31.761Z,17.83
2022-12-23T01:32:33.350Z,20.55
2022-12-23T01:37:34.873Z,14.55
2022-12-23T01:42:45.452Z,18.55
2022-12-23T01:48:05.429Z,15.43
2022-12-23T01:53:15.210Z,19.20
2022-12-23T01:58:27.743Z,15.98
2022-12-23T02:03:44.614Z,22.73
2022-12-23T02:09:04.866Z,15.52
2022-12-23T02:14:59.903Z,16.83
2022-12-23T02:20:38.825Z,20.85
2022-12-23T02:26:02.116Z,16.48
2022-12-23T02:31:13.681Z,19.45
2022-12-23T02:36:44.380Z,21.58
2022-12-23T02:41:57.536Z,21.85
2022-12-23T02:47:09.906Z,19.55
2022-12-23T02:52:17.208Z,23.92
2022-12-23T02:57:26.258Z,26.50
2022-12-23T03:02:27.836Z,25.00
2022-12-23T03:07:39.062Z,31.00
2022-12-23T03:13:07.289Z,26.83
2022-12-23T03:18:23.442Z,15.95
2022-12-23T03:23:38.992Z,16.77
2022-12-23T03:28:53.155Z,15.73
2022-12-23T03:34:04.082Z,13.57
2022-12-23T03:39:10.592Z,16.80
2022-12-23T03:44:27.256Z,10.18
2022-12-23T03:49:37.986Z,10.57
2022-12-23T03:54:53.702Z,8.60
2022-12-23T03:59:55.621Z,9.80
2022-12-23T04:05:13.903Z,12.20
2022-12-23T04:10:16.034Z,11.13
2022-12-23T04:15:26.076Z,11.18
2022-12-23T04:20:27.483Z,13.35
2022-12-23T04:25:28.915Z,11.60
2022-12-23T04:30:34.432Z,12.00
2022-12-23T04:35:36.362Z,12.87
2022-12-23T04:40:37.780Z,14.60
2022-12-23T04:45:39.205Z,10.60
2022-12-23T04:50:40.722Z,16.42
2022-12-23T04:55:42.225Z,15.35
2022-12-23T05:00:43.903Z,13.48
2022-12-23T05:05:45.799Z,14.95
2022-12-23T05:10:47.261Z,15.73
2022-12-23T05:15:53.671Z,14.75
2022-12-23T05:20:55.109Z,14.63
2022-12-23T05:25:56.541Z,12.93
2022-12-23T05:31:06.596Z,10.82
2022-12-23T05:36:09.078Z,13.40
2022-12-23T05:41:10.508Z,16.55
2022-12-23T05:46:12.140Z,14.70
2022-12-23T05:51:13.709Z,13.85
2022-12-23T05:56:16.632Z,15.13
2022-12-23T06:01:18.074Z,14.00
2022-12-23T06:06:19.516Z,13.25
2022-12-23T06:11:20.966Z,12.60
2022-12-23T06:16:22.471Z,13.15
2022-12-23T06:21:25.556Z,10.25
2022-12-23T06:26:27.156Z,8.95
2022-12-23T06:31:28.635Z,13.25
2022-12-23T06:36:30.022Z,9.82
2022-12-23T06:41:31.455Z,12.95
2022-12-23T06:46:32.947Z,10.70
2022-12-23T06:51:34.553Z,13.02
2022-12-23T06:56:36.027Z,14.40
2022-12-23T07:01:37.595Z,16.15
2022-12-23T07:06:39.790Z,14.88
2022-12-23T07:11:47.169Z,16.08
2022-12-23T07:16:48.739Z,13.95
2022-12-23T07:21:50.367Z,14.70
2022-12-23T07:26:51.987Z,13.60
2022-12-23T07:31:53.618Z,11.02
2022-12-23T07:36:55.716Z,13.05
2022-12-23T07:42:25.045Z,17.10
2022-12-23T07:47:18.593Z,17.75
2022-12-23T07:52:20.004Z,17.63
2022-12-23T07:57:21.436Z,16.55
2022-12-23T08:02:25.279Z,19.90
2022-12-23T08:07:28.371Z,17.80
2022-12-23T08:12:30.059Z,20.63
2022-12-23T08:17:31.551Z,21.85
2022-12-23T08:22:33.197Z,27.52
2022-12-23T08:27:35.784Z,28.70
2022-12-23T08:32:37.191Z,40.92
2022-12-23T08:37:45.411Z,37.80
2022-12-23T08:42:46.969Z,39.72
2022-12-23T08:47:48.361Z,40.33
2022-12-23T08:52:49.824Z,43.67
2022-12-23T08:57:51.275Z,38.85
2022-12-23T09:02:52.788Z,38.50
2022-12-23T09:07:54.674Z,44.95
2022-12-23T09:12:58.264Z,38.47
2022-12-23T09:17:59.750Z,38.40
2022-12-23T09:23:02.286Z,45.58
2022-12-23T09:28:05.200Z,41.35
2022-12-23T09:33:06.747Z,51.75
2022-12-23T09:38:08.637Z,45.08
2022-12-23T09:43:20.645Z,40.47
2022-12-23T09:48:26.978Z,47.13
2022-12-23T09:54:03.200Z,43.42
2022-12-23T09:59:23.015Z,42.75
2022-12-23T10:04:42.854Z,46.95
2022-12-23T10:09:47.159Z,51.38
2022-12-23T10:14:52.582Z,52.30
2022-12-23T10:20:00.138Z,56.80
2022-12-23T10:25:05.508Z,66.88
2022-12-23T10:30:42.014Z,60.67
2022-12-23T10:35:50.402Z,67.85
2022-12-23T10:41:11.872Z,63.75
2022-12-23T10:46:27.223Z,55.60
2022-12-23T10:51:32.170Z,69.28
2022-12-23T10:56:33.700Z,67.72
2022-12-23T11:01:35.438Z,82.75
2022-12-23T11:06:42.768Z,72.00
2022-12-23T11:12:06.371Z,80.90
2022-12-23T11:17:24.149Z,91.32
2022-12-23T11:22:25.697Z,90.55
2022-12-23T11:27:27.208Z,86.32
2022-12-23T11:32:29.356Z,98.50
2022-12-23T11:37:43.536Z,91.28
2022-12-23T11:42:47.948Z,91.30
2022-12-23T11:47:53.379Z,86.05
2022-12-23T11:53:14.847Z,84.93
2022-12-23T11:58:21.372Z,80.70
2022-12-23T12:03:27.699Z,87.05
2022-12-23T12:08:39.643Z,80.25
2022-12-23T12:13:44.085Z,86.30
2022-12-23T12:18:52.099Z,76.63
2022-12-23T12:24:19.816Z,74.07
2022-12-23T12:29:39.695Z,64.55
2022-12-23T12:34:50.578Z,71.97
2022-12-23T12:39:57.498Z,67.80
2022-12-23T12:45:20.816Z,72.20
2022-12-23T12:50:27.925Z,64.85
2022-12-23T12:55:43.388Z,65.07
2022-12-23T13:01:08.376Z,56.42
2022-12-23T13:06:26.929Z,51.80
2022-12-23T13:11:35.947Z,52.40
2022-12-23T13:16:53.178Z,48.38
2022-12-23T13:22:08.095Z,57.20
2022-12-23T13:27:35.643Z,55.67
2022-12-23T13:32:51.243Z,49.80
2022-12-23T13:38:23.142Z,45.72
2022-12-23T13:43:29.815Z,41.50
2022-12-23T13:54:05.364Z,39.67
2022-12-23T13:59:11.283Z,36.90
2022-12-23T14:04:29.808Z,28.80
2022-12-23T14:09:38.489Z,35.58
2022-12-23T14:14:48.913Z,33.88
2022-12-23T14:20:29.100Z,39.50
2022-12-23T14:25:43.845Z,49.95
2022-12-23T14:30:46.106Z,35.70
2022-12-23T14:35:47.614Z,42.83
2022-12-23T14:40:57.794Z,40.30
2022-12-23T14:46:08.306Z,41.85
2022-12-23T14:51:25.279Z,36.97
2022-12-23T15:01:44.796Z,47.83
2022-12-23T15:06:51.937Z,40.47
2022-12-23T15:11:57.440Z,38.47
2022-12-23T15:16:58.989Z,42.40
2022-12-23T15:22:20.696Z,41.50
2022-12-23T15:27:28.448Z,33.55
2022-12-23T15:32:31.134Z,37.15
2022-12-23T15:37:33.819Z,35.10
2022-12-23T15:42:37.001Z,34.38
2022-12-23T15:47:39.470Z,39.83
2022-12-23T15:52:44.217Z,33.85
2022-12-23T15:57:50.544Z,34.47
2022-12-23T16:08:28.543Z,32.72
2022-12-23T16:13:33.182Z,31.10
2022-12-23T16:18:47.209Z,30.20
2022-12-23T16:23:57.738Z,34.10
2022-12-23T16:29:03.208Z,39.25
2022-12-23T16:34:08.849Z,43.40
2022-12-23T16:39:21.772Z,37.25
2022-12-23T16:44:46.653Z,41.63
2022-12-23T16:49:53.928Z,42.45
2022-12-23T16:55:02.767Z,41.60
2022-12-23T17:00:04.668Z,37.50
2022-12-23T17:05:14.537Z,58.35
2022-12-23T17:10:18.749Z,41.35
2022-12-23T17:15:25.145Z,31.38
2022-12-23T17:20:26.781Z,34.75
2022-12-23T17:25:29.851Z,35.95
2022-12-23T17:30:32.968Z,38.92
2022-12-23T17:35:53.547Z,33.97
2022-12-23T17:40:56.327Z,23.08
2022-12-23T17:46:03.016Z,22.05
2022-12-23T17:51:04.691Z,24.20
2022-12-23T17:56:21.156Z,21.73
2022-12-23T18:01:28.947Z,15.07
2022-12-23T18:06:30.411Z,20.80
2022-12-23T18:11:43.916Z,17.20
2022-12-23T18:16:51.377Z,16.27
2022-12-23T18:21:57.665Z,22.60
2022-12-23T18:26:59.165Z,8.30
2022-12-23T18:32:07.155Z,27.50
2022-12-23T18:37:11.703Z,17.05
2022-12-23T18:42:21.509Z,13.13
2022-12-23T18:47:24.788Z,22.88
2022-12-23T18:52:27.743Z,22.35
2022-12-23T18:57:31.555Z,43.63
2022-12-23T19:02:42.949Z,30.55
2022-12-23T19:07:51.781Z,30.58
2022-12-23T19:12:54.483Z,16.00
2022-12-23T19:18:07.409Z,40.72
2022-12-23T19:23:09.798Z,32.38
2022-12-23T19:28:11.779Z,24.35
2022-12-23T19:33:15.722Z,30.25
2022-12-23T19:38:19.830Z,33.83
2022-12-23T19:43:22.672Z,36.63
2022-12-23T19:48:28.242Z,34.88
2022-12-23T19:53:30.464Z,25.13
2022-12-23T19:58:37.402Z,14.45
2022-12-23T20:03:42.811Z,35.50
2022-12-23T20:08:47.785Z,38.60
2022-12-23T20:13:54.152Z,20.20
2022-12-23T20:18:56.524Z,20.02
2022-12-23T20:23:58.097Z,14.18
2022-12-23T20:28:59.678Z,23.48
2022-12-23T20:34:05.871Z,19.30
2022-12-23T20:39:10.346Z,17.83
2022-12-23T20:49:36.304Z,11.93
2022-12-23T20:54:37.885Z,10.70
2022-12-23T20:59:39.340Z,9.98
2022-12-23T21:04:43.230Z,18.42
2022-12-23T21:09:44.648Z,8.65
2022-12-23T21:14:46.053Z,12.32
2022-12-23T21:19:51.062Z,24.08
2022-12-23T21:24:53.769Z,22.42
2022-12-23T21:29:55.318Z,13.95
2022-12-23T21:34:58.040Z,18.00
2022-12-23T21:40:01.746Z,23.90
2022-12-23T21:45:06.053Z,18.73
2022-12-23T21:50:08.565Z,17.63
2022-12-23T21:55:15.623Z,12.18
2022-12-23T22:00:17.404Z,21.92
2022-12-23T22:05:23.200Z,21.95
2022-12-23T22:10:24.685Z,13.83
2022-12-23T22:15:26.161Z,11.00
2022-12-23T22:20:30.212Z,18.90
2022-12-23T22:25:31.757Z,10.55
2022-12-23T22:30:34.600Z,22.02
2022-12-23T22:35:39.654Z,22.73
2022-12-23T22:40:41.375Z,9.77
2022-12-23T22:45:43.174Z,12.90
2022-12-23T22:50:48.557Z,15.90
2022-12-23T22:55:56.943Z,13.85
2022-12-23T23:00:59.297Z,18.98
2022-12-23T23:06:09.428Z,18.67
2022-12-23T23:11:11.055Z,17.73
2022-12-23T23:16:13.009Z,16.10
2022-12-23T23:21:17.695Z,21.67
2022-12-23T23:26:21.214Z,14.57
2022-12-23T23:31:41.735Z,14.15
2022-12-23T23:36:47.763Z,31.33
2022-12-23T23:41:51.079Z,18.27
2022-12-23T23:46:52.794Z,23.35
2022-12-23T23:51:55.677Z,14.02
2022-12-23T23:56:57.193Z,22.73
